Time;durP1;ratioP1;P1;durP2;ratioP2;P2;SDS_P1;SDS_P2;PMS_P1;PMS_P2;Temp;Humidity;BMP_temperature;BMP_pressure;BME280_temperature;BME280_humidity;BME280_pressure;Samples;Min_cycle;Max_cycle;Signal;HPM_P1;HPM_P2
2022/09/27 00:01:34;;;;;;;10.20;5.33;;;;;;;12.34;89.16;98525.64;1725736;83;21109;-81
2022/09/27 00:04:02;;;;;;;6.28;4.97;;;;;;;12.32;89.32;98523.54;1725663;83;21486;-80
2022/09/27 00:06:30;;;;;;;6.50;5.00;;;;;;;12.31;89.36;98520.54;1725960;83;21030;-81
2022/09/27 00:08:58;;;;;;;4.92;4.53;;;;;;;12.30;89.47;98515.35;1725892;83;21014;-79
2022/09/27 00:11:35;;;;;;;5.33;4.87;;;;;;;12.29;89.56;98505.28;1725486;83;21623;-79
2022/09/27 00:14:02;;;;;;;8.93;5.22;;;;;;;12.29;89.54;98499.13;1725952;83;21019;-78
2022/09/27 00:16:32;;;;;;;12.55;5.60;;;;;;;12.29;89.57;98497.81;1725998;83;21592;-80
2022/09/27 00:19:01;;;;;;;7.00;5.00;;;;;;;12.31;89.56;98494.64;1726039;83;21109;-78
2022/09/27 00:21:29;;;;;;;9.23;5.08;;;;;;;12.30;89.63;98491.61;1725342;83;21295;-79
2022/09/27 00:23:56;;;;;;;6.15;5.53;;;;;;;12.28;89.72;98493.50;1725910;83;21073;-79
2022/09/27 00:26:23;;;;;;;5.15;4.65;;;;;;;12.23;89.87;98493.28;1725659;83;21030;-78
2022/09/27 00:28:50;;;;;;;9.90;5.53;;;;;;;12.22;90.03;98494.23;1725831;83;21085;-80
2022/09/27 00:31:21;;;;;;;5.55;4.90;;;;;;;12.22;90.06;98487.64;1725829;83;20959;-81
2022/09/27 00:33:50;;;;;;;5.75;5.15;;;;;;;12.20;90.00;98481.58;1725795;83;21633;-80
2022/09/27 00:36:19;;;;;;;5.72;5.08;;;;;;;12.21;90.16;98478.50;1726002;83;21076;-80
2022/09/27 00:38:46;;;;;;;7.85;5.12;;;;;;;12.20;90.33;98463.13;1725937;83;21651;-80
2022/09/27 00:41:16;;;;;;;5.78;4.92;;;;;;;12.21;90.27;98452.97;1725884;83;21556;-79
2022/09/27 00:43:51;;;;;;;8.63;5.12;;;;;;;12.21;90.35;98458.23;1710450;82;21047;-81
2022/09/27 00:46:33;;;;;;;5.87;5.28;;;;;;;12.20;90.32;98455.21;1710173;83;21172;-80
2022/09/27 00:49:21;;;;;;;5.92;4.62;;;;;;;12.18;90.33;98463.69;1709533;83;21078;-80
2022/09/27 00:51:52;;;;;;;7.25;5.65;;;;;;;12.17;90.53;98460.69;1709618;83;21042;-80
2022/09/27 00:54:19;;;;;;;8.15;5.50;;;;;;;12.15;90.69;98453.31;1709422;83;21023;-81
2022/09/27 00:56:46;;;;;;;6.10;5.20;;;;;;;12.12;90.98;98448.25;1710100;83;21106;-82
2022/09/27 00:59:35;;;;;;;6.80;5.28;;;;;;;12.11;91.15;98445.22;1709887;83;21713;-80
2022/09/27 01:02:03;;;;;;;6.10;5.17;;;;;;;12.10;91.15;98441.34;1709191;83;22019;-80
2022/09/27 01:04:30;;;;;;;6.28;5.65;;;;;;;12.10;91.35;98436.08;1689505;83;21494;-81
2022/09/27 01:06:57;;;;;;;6.00;5.50;;;;;;;12.08;91.58;98441.43;1689494;83;21063;-79
2022/09/27 01:09:24;;;;;;;10.40;5.47;;;;;;;12.05;91.70;98438.97;1689699;83;21110;-81
2022/09/27 01:12:28;;;;;;;8.60;5.83;;;;;;;12.06;91.83;98438.04;1710076;83;21113;-80
2022/09/27 01:15:26;;;;;;;6.05;5.28;;;;;;;12.07;91.92;98431.84;1709539;83;21086;-80
2022/09/27 01:18:14;;;;;;;5.83;5.30;;;;;;;12.05;92.12;98423.15;1709808;83;21048;-80
2022/09/27 01:20:55;;;;;;;5.83;5.22;;;;;;;12.03;92.33;98427.67;1709525;83;21011;-81
2022/09/27 01:23:58;;;;;;;6.42;5.58;;;;;;;12.03;92.49;98418.44;1710220;83;21024;-82
2022/09/27 01:26:57;;;;;;;7.95;5.75;;;;;;;12.03;92.53;98419.28;1709828;83;21510;-82
2022/09/27 01:29:54;;;;;;;7.35;6.35;;;;;;;12.02;92.61;98407.50;1687915;83;21118;-80
2022/09/27 01:32:38;;;;;;;7.90;6.20;;;;;;;12.02;92.57;98404.87;1707146;83;21075;-80
2022/09/27 01:35:41;;;;;;;10.05;6.42;;;;;;;12.03;92.62;98399.98;1710326;83;21513;-80
2022/09/27 01:38:22;;;;;;;8.18;6.70;;;;;;;12.03;92.77;98401.30;1709588;83;21114;-81
2022/09/27 01:41:18;;;;;;;7.92;6.75;;;;;;;12.01;92.83;98399.23;1710231;83;21125;-80
2022/09/27 01:44:14;;;;;;;9.43;6.62;;;;;;;11.99;93.01;98399.80;1724765;82;21089;-81
2022/09/27 01:46:50;;;;;;;9.03;7.40;;;;;;;11.98;93.18;98399.41;1726127;83;21026;-80
2022/09/27 01:49:42;;;;;;;8.98;8.03;;;;;;;11.96;93.21;98394.22;1725511;83;21121;-82
2022/09/27 01:52:09;;;;;;;9.05;7.95;;;;;;;11.95;93.22;98383.29;1723291;83;21070;-80
2022/09/27 01:54:44;;;;;;;13.22;8.05;;;;;;;11.96;93.25;98379.72;1725947;83;21136;-80
2022/09/27 01:57:18;;;;;;;13.72;8.05;;;;;;;11.98;93.32;98372.56;1725313;83;21046;-80
2022/09/27 01:59:49;;;;;;;11.15;7.92;;;;;;;11.98;93.54;98362.50;1727195;83;21133;-82
2022/09/27 02:02:45;;;;;;;12.15;8.55;;;;;;;11.96;93.65;98363.07;1725874;83;21109;-80
2022/09/27 02:05:22;;;;;;;10.32;8.63;;;;;;;11.93;93.75;98371.16;1682297;83;21086;-82
2022/09/27 02:07:56;;;;;;;11.25;8.15;;;;;;;11.94;93.85;98371.55;1725879;83;21801;-80
2022/09/27 02:10:29;;;;;;;9.90;8.08;;;;;;;11.90;93.99;98374.32;1725978;83;21133;-80
2022/09/27 02:13:13;;;;;;;10.55;8.65;;;;;;;11.90;94.08;98373.00;1726036;83;21592;-80
2022/09/27 02:16:09;;;;;;;13.28;8.65;;;;;;;11.91;94.04;98362.02;1725918;83;21078;-80
2022/09/27 02:18:58;;;;;;;12.65;8.43;;;;;;;11.94;94.10;98361.84;1726151;83;21079;-81
2022/09/27 02:21:30;;;;;;;14.40;9.05;;;;;;;11.94;94.19;98362.32;1697048;83;21253;-81
2022/09/27 02:23:58;;;;;;;15.05;8.83;;;;;;;11.92;94.36;98358.45;1726060;83;21526;-81
2022/09/27 02:26:42;;;;;;;14.75;9.73;;;;;;;11.93;94.39;98358.81;1725674;83;21707;-81
2022/09/27 02:29:23;;;;;;;14.60;9.98;;;;;;;11.94;94.43;98355.73;1681937;83;21062;-81
2022/09/27 02:31:53;;;;;;;17.48;11.30;;;;;;;11.94;94.52;98352.61;1723941;83;21830;-80
2022/09/27 02:34:23;;;;;;;17.98;11.03;;;;;;;11.96;94.61;98349.89;1727805;83;21191;-81
2022/09/27 02:36:52;;;;;;;14.38;11.25;;;;;;;11.95;94.62;98350.81;1725433;83;21023;-81
2022/09/27 02:39:19;;;;;;;13.58;10.40;;;;;;;11.94;94.65;98348.66;1725596;83;21133;-80
2022/09/27 02:41:47;;;;;;;13.05;10.40;;;;;;;11.95;94.75;98349.02;1726181;83;21592;-81
2022/09/27 02:44:14;;;;;;;14.70;11.60;;;;;;;11.94;94.97;98347.82;1727469;81;21058;-80
2022/09/27 02:47:19;;;;;;;15.13;10.60;;;;;;;11.94;95.12;98351.78;1728265;83;21104;-80
2022/09/27 02:50:36;;;;;;;16.23;11.48;;;;;;;11.95;95.36;98337.64;1719133;82;21470;-80
2022/09/27 02:53:30;;;;;;;17.50;13.20;;;;;;;11.92;95.48;98328.14;1717889;83;21117;-82
2022/09/27 02:56:28;;;;;;;19.73;12.15;;;;;;;11.88;95.70;98330.08;1727964;83;21051;-81
2022/09/27 02:59:15;;;;;;;18.57;11.97;;;;;;;11.86;95.88;98316.13;1727891;83;21054;-82
2022/09/27 03:02:13;;;;;;;16.00;13.18;;;;;;;11.84;95.98;98319.32;1715012;83;21169;-80
2022/09/27 03:05:00;;;;;;;19.48;14.18;;;;;;;11.82;96.24;98319.89;1726951;82;21078;-79
2022/09/27 03:07:27;;;;;;;17.80;13.05;;;;;;;11.81;96.50;98328.72;1727401;83;21553;-80
2022/09/27 03:09:54;;;;;;;18.42;13.05;;;;;;;11.82;96.61;98325.64;1695455;83;21047;-80
2022/09/27 03:12:27;;;;;;;18.87;13.62;;;;;;;11.84;96.59;98314.53;1728094;83;21062;-80
2022/09/27 03:14:57;;;;;;;19.60;14.00;;;;;;;11.85;96.70;98318.39;1727839;83;21617;-81
2022/09/27 03:17:35;;;;;;;19.05;14.07;;;;;;;11.84;96.67;98316.69;1725401;83;21618;-81
2022/09/27 03:20:22;;;;;;;19.07;14.40;;;;;;;11.87;96.67;98313.88;1727938;83;21134;-81
2022/09/27 03:22:51;;;;;;;19.30;13.45;;;;;;;11.89;96.80;98313.78;1727926;82;21043;-80
2022/09/27 03:25:20;;;;;;;22.98;14.55;;;;;;;11.89;96.78;98305.41;1727978;83;21014;-81
2022/09/27 03:27:47;;;;;;;21.52;13.45;;;;;;;11.89;96.85;98304.56;1727981;83;21152;-80
2022/09/27 03:30:14;;;;;;;18.95;14.03;;;;;;;11.90;96.83;98319.42;1727745;83;21094;-79
2022/09/27 03:32:43;;;;;;;22.40;16.25;;;;;;;11.90;96.88;98322.92;1727794;83;21009;-80
2022/09/27 03:35:28;;;;;;;29.72;17.32;;;;;;;11.88;97.01;98315.59;1727747;83;21059;-80
2022/09/27 03:37:55;;;;;;;24.98;17.30;;;;;;;11.87;97.22;98315.20;1727845;83;21069;-80
2022/09/27 03:40:22;;;;;;;29.98;18.02;;;;;;;11.88;97.19;98316.91;1727961;83;21640;-82
2022/09/27 03:42:49;;;;;;;37.73;18.75;;;;;;;11.87;97.37;98315.20;1727503;82;21151;-80
2022/09/27 03:45:17;;;;;;;31.20;18.00;;;;;;;11.87;97.50;98316.52;1726123;83;21089;-81
2022/09/27 03:47:44;;;;;;;31.40;19.07;;;;;;;11.88;97.57;98312.08;1725717;83;20987;-81
2022/09/27 03:50:11;;;;;;;30.30;17.85;;;;;;;11.89;97.64;98310.67;1725697;83;21073;-80
2022/09/27 03:52:38;;;;;;;29.95;20.05;;;;;;;11.92;97.62;98308.37;1725704;83;23169;-80
2022/09/27 03:55:06;;;;;;;33.15;19.45;;;;;;;11.94;97.63;98304.33;1726064;83;21062;-80
2022/09/27 03:57:33;;;;;;;32.60;20.43;;;;;;;11.95;97.53;98302.05;1725879;83;21109;-80
2022/09/27 04:00:00;;;;;;;33.85;19.42;;;;;;;11.95;97.53;98301.57;1725586;83;21619;-77
2022/09/27 04:02:40;;;;;;;30.75;20.02;;;;;;;11.97;97.59;98301.03;1725698;83;20990;-80
2022/09/27 04:05:26;;;;;;;26.87;19.95;;;;;;;12.00;97.54;98296.03;1725521;83;21640;-80
2022/09/27 04:08:01;;;;;;;31.10;19.45;;;;;;;11.98;97.56;98305.34;1725951;83;21482;-80
2022/09/27 04:10:31;;;;;;;31.65;19.77;;;;;;;11.98;97.47;98300.08;1725919;83;21640;-81
2022/09/27 04:12:59;;;;;;;28.73;19.17;;;;;;;11.97;97.45;98297.08;1725589;83;21133;-81
2022/09/27 04:15:27;;;;;;;29.12;18.95;;;;;;;11.96;97.43;98299.80;1725837;82;21061;-80
2022/09/27 04:17:56;;;;;;;29.95;18.65;;;;;;;11.95;97.50;98303.37;1679924;83;21142;-81
2022/09/27 04:20:25;;;;;;;26.52;17.87;;;;;;;11.95;97.50;98306.00;1726023;83;22967;-80
2022/09/27 04:22:52;;;;;;;27.15;17.25;;;;;;;11.95;97.48;98302.89;1725482;83;21026;-80
2022/09/27 04:25:20;;;;;;;26.70;17.55;;;;;;;11.94;97.64;98301.21;1726199;83;21148;-81
2022/09/27 04:27:50;;;;;;;23.87;16.97;;;;;;;11.93;97.74;98296.88;1725586;83;21070;-80
2022/09/27 04:30:17;;;;;;;30.12;17.48;;;;;;;11.95;97.86;98300.73;1726114;82;21804;-80
2022/09/27 04:32:46;;;;;;;25.80;17.27;;;;;;;11.97;97.86;98293.58;1724498;83;21078;-82
2022/09/27 04:38:02;;;;;;;26.07;18.40;;;;;;;12.01;97.57;98282.77;1704886;83;21644;-81
2022/09/27 04:40:29;;;;;;;28.42;17.45;;;;;;;12.05;97.42;98283.42;1725889;83;21054;-80
2022/09/27 04:42:55;;;;;;;26.50;18.32;;;;;;;12.07;97.38;98274.97;1724630;82;21120;-80
2022/09/27 04:45:22;;;;;;;28.12;19.50;;;;;;;12.08;97.29;98273.53;1709717;83;21133;-82
2022/09/27 04:47:49;;;;;;;31.23;20.52;;;;;;;12.10;97.39;98276.08;1709628;83;21019;-80
2022/09/27 04:50:17;;;;;;;30.85;20.02;;;;;;;12.11;97.35;98267.24;1709882;83;21142;-80
2022/09/27 04:52:51;;;;;;;27.32;19.02;;;;;;;12.12;97.34;98257.09;1710165;83;21069;-80
2022/09/27 04:55:18;;;;;;;32.60;20.05;;;;;;;12.15;97.15;98253.39;1709960;83;21113;-81
2022/09/27 04:57:46;;;;;;;36.73;21.55;;;;;;;12.16;97.20;98253.78;1713408;83;21055;-82
2022/09/27 05:00:14;;;;;;;37.08;20.85;;;;;;;12.16;97.26;98251.15;1709971;83;21538;-80
2022/09/27 05:02:47;;;;;;;36.05;21.05;;;;;;;12.15;97.30;98248.95;1713478;83;20972;-80
2022/09/27 05:05:32;;;;;;;31.45;20.60;;;;;;;12.14;97.43;98240.70;1709860;83;21133;-80
2022/09/27 05:07:59;;;;;;;34.35;21.90;;;;;;;12.13;97.47;98240.30;1709620;83;21292;-78
2022/09/27 05:10:27;;;;;;;34.45;22.37;;;;;;;12.13;97.45;98241.63;1710111;83;21718;-80
2022/09/27 05:12:54;;;;;;;36.55;22.10;;;;;;;12.14;97.51;98239.83;1709746;83;21016;-81
2022/09/27 05:15:21;;;;;;;36.00;22.02;;;;;;;12.15;97.49;98242.37;1710110;83;21023;-79
2022/09/27 05:18:07;;;;;;;34.83;21.95;;;;;;;12.15;97.51;98234.94;1703311;83;21070;-79
2022/09/27 05:20:44;;;;;;;33.78;22.17;;;;;;;12.14;97.79;98238.50;1667743;86;21126;-80
2022/09/27 05:23:12;;;;;;;37.15;22.93;;;;;;;12.12;97.92;98234.67;1707473;83;20999;-79
2022/09/27 05:25:39;;;;;;;37.95;23.40;;;;;;;12.15;98.07;98229.19;1710194;83;21101;-80
2022/09/27 05:28:07;;;;;;;38.85;23.42;;;;;;;12.15;98.15;98237.09;1709502;83;21094;-78
2022/09/27 05:30:35;;;;;;;33.48;22.93;;;;;;;12.16;98.38;98248.03;1710409;83;21019;-81
2022/09/27 05:33:07;;;;;;;35.52;21.65;;;;;;;12.16;98.41;98249.34;1709723;83;21294;-78
2022/09/27 05:35:54;;;;;;;34.90;22.17;;;;;;;12.20;98.40;98257.44;1710179;83;20996;-81
2022/09/27 05:38:24;;;;;;;34.05;22.20;;;;;;;12.24;98.30;98257.64;1710446;83;21118;-80
2022/09/27 05:40:52;;;;;;;34.60;22.90;;;;;;;12.28;98.28;98252.18;1709894;83;21001;-80
2022/09/27 05:43:20;;;;;;;35.15;22.87;;;;;;;12.31;98.14;98252.00;1710266;82;21078;-78
2022/09/27 05:45:47;;;;;;;47.08;22.93;;;;;;;12.34;98.00;98255.73;1709853;83;21157;-80
2022/09/27 05:48:17;;;;;;;43.00;23.92;;;;;;;12.38;97.97;98257.26;1709911;83;21102;-80
2022/09/27 05:50:45;;;;;;;37.95;23.57;;;;;;;12.38;98.05;98258.58;1709801;83;21070;-81
2022/09/27 05:53:12;;;;;;;40.40;24.23;;;;;;;12.40;98.09;98258.00;1713761;83;21134;-80
2022/09/27 05:55:39;;;;;;;34.27;23.73;;;;;;;12.42;98.00;98260.06;1709937;83;21051;-81
2022/09/27 05:58:07;;;;;;;37.23;24.50;;;;;;;12.43;97.97;98248.58;1709922;83;22295;-80
2022/09/27 06:00:38;;;;;;;42.40;25.70;;;;;;;12.45;98.03;98254.61;1710497;83;21126;-81
2022/09/27 06:03:07;;;;;;;41.00;25.32;;;;;;;12.47;98.06;98256.67;1709792;83;21036;-80
2022/09/27 06:05:51;;;;;;;38.50;24.12;;;;;;;12.48;98.01;98253.09;1694379;84;21031;-79
2022/09/27 06:08:20;;;;;;;38.35;25.48;;;;;;;12.52;98.08;98251.11;1700822;83;21043;-79
2022/09/27 06:10:48;;;;;;;39.25;25.32;;;;;;;12.53;98.10;98253.66;1710455;83;21146;-82
2022/09/27 06:13:15;;;;;;;42.75;25.08;;;;;;;12.52;98.13;98251.95;1713350;83;21086;-80
2022/09/27 06:15:44;;;;;;;40.67;23.40;;;;;;;12.53;98.20;98244.91;1710144;83;21483;-80
2022/09/27 06:18:15;;;;;;;41.73;23.73;;;;;;;12.55;98.27;98245.16;1713779;83;21400;-80
2022/09/27 06:20:42;;;;;;;35.30;22.73;;;;;;;12.53;98.36;98247.06;1713469;83;21589;-79
2022/09/27 06:23:13;;;;;;;34.53;23.32;;;;;;;12.52;98.50;98246.67;1709811;83;22255;-79
2022/09/27 06:25:40;;;;;;;36.90;23.12;;;;;;;12.53;98.54;98236.51;1709834;83;21063;-78
2022/09/27 06:28:11;;;;;;;35.30;22.70;;;;;;;12.56;98.73;98246.03;1709219;83;21074;-80
2022/09/27 06:30:41;;;;;;;37.73;22.98;;;;;;;12.59;98.85;98246.69;1709799;83;21043;-79
2022/09/27 06:33:11;;;;;;;42.88;23.85;;;;;;;12.63;98.93;98250.81;1709821;83;20995;-80
2022/09/27 06:35:44;;;;;;;47.40;23.62;;;;;;;12.64;98.92;98247.23;1690609;83;21357;-80
2022/09/27 06:38:13;;;;;;;47.83;22.50;;;;;;;12.68;99.09;98251.01;1709803;83;21055;-80
2022/09/27 06:40:45;;;;;;;46.15;23.65;;;;;;;12.71;99.05;98254.74;1710119;83;21499;-79
2022/09/27 06:43:18;;;;;;;49.27;24.10;;;;;;;12.73;99.06;98251.56;1709979;83;21087;-78
2022/09/27 06:46:04;;;;;;;55.35;24.23;;;;;;;12.74;99.14;98262.02;1694116;84;21022;-80
2022/09/27 06:48:38;;;;;;;50.58;22.27;;;;;;;12.77;99.14;98257.00;1705603;83;21742;-79
2022/09/27 06:51:07;;;;;;;44.38;22.30;;;;;;;12.80;99.02;98256.81;1710388;83;21051;-78
2022/09/27 06:53:33;;;;;;;57.27;23.85;;;;;;;12.84;98.91;98247.73;1710028;83;21644;-81
2022/09/27 06:56:01;;;;;;;54.40;24.57;;;;;;;12.85;99.07;98244.16;1709856;83;21038;-79
2022/09/27 07:01:35;;;;;;;48.28;21.93;;;;;;;12.89;99.36;98240.85;1710394;83;21196;-81
2022/09/27 07:04:20;;;;;;;61.85;24.60;;;;;;;12.93;99.37;98247.16;1709622;83;20999;-81
2022/09/27 07:06:54;;;;;;;57.80;25.55;;;;;;;12.95;99.34;98235.19;1708975;83;21553;-79
2022/09/27 07:09:22;;;;;;;62.00;23.45;;;;;;;12.96;99.52;98235.54;1709867;83;21122;-80
2022/09/27 07:11:49;;;;;;;50.67;23.27;;;;;;;12.97;99.65;98245.16;1709696;83;21122;-80
2022/09/27 07:14:16;;;;;;;48.13;23.38;;;;;;;12.98;99.86;98246.39;1710029;83;21145;-81
2022/09/27 07:16:44;;;;;;;51.37;24.37;;;;;;;13.00;100.00;98251.09;1709901;83;21016;-80
2022/09/27 07:19:13;;;;;;;52.38;22.93;;;;;;;13.02;100.00;98247.03;1710091;83;21059;-80
2022/09/27 07:21:40;;;;;;;55.60;22.80;;;;;;;13.07;100.00;98255.50;1709668;83;21031;-81
2022/09/27 07:24:07;;;;;;;54.08;23.83;;;;;;;13.10;100.00;98251.34;1710160;83;21028;-79
2022/09/27 07:26:34;;;;;;;64.35;26.12;;;;;;;13.14;99.81;98251.98;1713570;83;21180;-80
2022/09/27 07:29:02;;;;;;;55.48;24.77;;;;;;;13.16;99.68;98242.16;1709638;83;21034;-79
2022/09/27 07:31:29;;;;;;;60.48;24.27;;;;;;;13.19;99.63;98242.80;1710386;83;21063;-78
2022/09/27 07:33:56;;;;;;;57.65;24.40;;;;;;;13.23;99.63;98238.20;1709832;83;21165;-81
2022/09/27 07:36:22;;;;;;;59.50;24.45;;;;;;;13.24;99.49;98234.59;1709805;83;21066;-79
2022/09/27 07:38:51;;;;;;;54.55;22.87;;;;;;;13.25;99.46;98236.30;1709936;83;21066;-81
2022/09/27 07:41:19;;;;;;;42.25;20.97;;;;;;;13.29;99.72;98242.22;1710030;83;21063;-80
2022/09/27 07:43:46;;;;;;;48.38;20.05;;;;;;;13.29;99.88;98244.38;1710797;82;21078;-80
2022/09/27 07:46:13;;;;;;;45.00;20.77;;;;;;;13.32;99.89;98239.41;1725592;83;21623;-80
2022/09/27 07:48:51;;;;;;;38.45;18.75;;;;;;;13.32;99.80;98229.67;1725791;83;21050;-80
2022/09/27 07:51:33;;;;;;;48.65;21.35;;;;;;;13.33;99.74;98228.73;1725836;83;21149;-79
2022/09/27 07:54:01;;;;;;;47.45;19.80;;;;;;;13.35;99.63;98223.36;1725671;83;21019;-80
2022/09/27 07:56:30;;;;;;;42.65;20.17;;;;;;;13.37;99.63;98214.36;1724948;83;21015;-79
2022/09/27 07:58:57;;;;;;;41.13;19.85;;;;;;;13.40;99.78;98218.61;1726067;83;21090;-78
2022/09/27 08:01:24;;;;;;;49.20;19.37;;;;;;;13.40;100.00;98217.74;1727136;83;21596;-80
2022/09/27 08:03:52;;;;;;;45.92;18.82;;;;;;;13.41;100.00;98217.64;1725847;83;22037;-80
2022/09/27 08:06:19;;;;;;;38.53;17.52;;;;;;;13.44;100.00;98221.89;1725499;82;21160;-80
2022/09/27 08:08:46;;;;;;;37.50;18.57;;;;;;;13.46;100.00;98222.63;1725542;83;21078;-80
2022/09/27 08:11:17;;;;;;;41.75;18.35;;;;;;;13.47;100.00;98221.69;1725712;83;21157;-80
2022/09/27 08:13:48;;;;;;;45.85;18.30;;;;;;;13.46;100.00;98214.70;1725729;83;21054;-78
2022/09/27 08:16:14;;;;;;;32.58;17.20;;;;;;;13.48;100.00;98207.51;1725926;83;21120;-80
2022/09/27 08:18:55;;;;;;;42.67;18.80;;;;;;;13.50;100.00;98209.11;1725876;83;21111;-80
2022/09/27 08:21:37;;;;;;;30.12;16.87;;;;;;;13.54;100.00;98215.03;1725682;83;21082;-80
2022/09/27 08:24:21;;;;;;;31.75;16.57;;;;;;;13.56;100.00;98216.61;1725516;83;21072;-80
2022/09/27 08:27:09;;;;;;;31.65;15.80;;;;;;;13.60;100.00;98214.62;1725678;83;21120;-80
2022/09/27 08:29:49;;;;;;;25.12;15.38;;;;;;;13.62;100.00;98215.36;1692192;83;21149;-80
2022/09/27 08:32:16;;;;;;;31.40;15.85;;;;;;;13.64;100.00;98207.33;1725706;83;21109;-80
2022/09/27 08:34:44;;;;;;;25.30;13.10;;;;;;;13.66;100.00;98205.42;1725664;83;21062;-80
2022/09/27 08:37:11;;;;;;;26.40;14.20;;;;;;;13.67;100.00;98215.89;1725611;83;21093;-80
2022/09/27 08:39:39;;;;;;;26.25;13.70;;;;;;;13.71;99.96;98217.36;1725655;83;21006;-80
2022/09/27 08:42:27;;;;;;;20.40;13.32;;;;;;;13.71;99.78;98212.56;1725813;83;21126;-80
2022/09/27 08:45:13;;;;;;;23.77;13.40;;;;;;;13.72;99.59;98211.14;1719765;82;21082;-79
2022/09/27 08:47:48;;;;;;;24.70;13.48;;;;;;;13.75;99.68;98206.97;1709870;83;21224;-80
2022/09/27 08:50:28;;;;;;;24.20;13.75;;;;;;;13.81;99.84;98211.46;1709802;83;21047;-80
2022/09/27 08:53:15;;;;;;;17.42;12.05;;;;;;;13.83;100.00;98210.39;1709515;83;21059;-80
2022/09/27 08:55:49;;;;;;;16.40;11.70;;;;;;;13.85;100.00;98208.96;1709747;83;21244;-81
2022/09/27 08:58:27;;;;;;;18.57;11.57;;;;;;;13.88;100.00;98208.75;1709799;83;20925;-80
2022/09/27 09:00:57;;;;;;;18.90;10.78;;;;;;;13.94;100.00;98205.70;1709759;83;21098;-80
2022/09/27 09:03:32;;;;;;;17.82;11.15;;;;;;;13.98;100.00;98207.65;1709536;83;21703;-79
2022/09/27 09:06:36;;;;;;;18.02;11.48;;;;;;;14.00;100.00;98198.64;1709704;83;22123;-80
2022/09/27 09:09:36;;;;;;;19.23;11.60;;;;;;;14.03;99.92;98194.47;1709869;83;21109;-80
2022/09/27 09:12:46;;;;;;;14.75;10.60;;;;;;;14.08;99.82;98191.02;1709119;83;21028;-80
2022/09/27 09:15:29;;;;;;;15.50;11.95;;;;;;;14.11;99.65;98197.42;1709618;83;21075;-79
2022/09/27 09:18:21;;;;;;;18.37;13.03;;;;;;;14.15;99.43;98195.89;1713118;83;21146;-78
2022/09/27 09:21:22;;;;;;;16.12;12.23;;;;;;;14.15;99.59;98190.59;1709561;83;21091;-81
2022/09/27 09:24:27;;;;;;;22.05;12.70;;;;;;;14.18;99.73;98197.83;1709782;83;21161;-80
2022/09/27 09:27:00;;;;;;;14.15;10.72;;;;;;;14.20;100.00;98196.41;1710092;83;21111;-81
2022/09/27 09:29:33;;;;;;;12.85;9.65;;;;;;;14.18;100.00;98191.22;1712944;83;21066;-80
2022/09/27 09:32:23;;;;;;;9.10;7.87;;;;;;;14.17;100.00;98187.36;1710127;83;21027;-80
2022/09/27 09:35:02;;;;;;;10.53;9.00;;;;;;;14.18;100.00;98190.38;1709406;83;21050;-78
2022/09/27 09:37:51;;;;;;;11.78;9.70;;;;;;;14.21;100.00;98196.30;1709825;83;21135;-79
2022/09/27 09:40:42;;;;;;;10.78;9.15;;;;;;;14.15;100.00;98198.53;1709582;83;21134;-80
2022/09/27 09:43:32;;;;;;;11.53;10.18;;;;;;;14.05;100.00;98188.58;1710100;83;21086;-79
2022/09/27 09:46:11;;;;;;;9.40;8.50;;;;;;;14.01;100.00;98191.09;1720724;82;21010;-80
2022/09/27 09:48:45;;;;;;;10.32;9.33;;;;;;;13.97;100.00;98193.59;1727590;83;21082;-79
2022/09/27 09:51:22;;;;;;;11.20;9.03;;;;;;;13.97;100.00;98195.37;1725842;83;21246;-79
2022/09/27 09:54:09;;;;;;;12.00;8.83;;;;;;;13.98;100.00;98199.23;1725393;83;21003;-78
2022/09/27 09:56:46;;;;;;;13.45;9.78;;;;;;;14.03;100.00;98190.98;1727185;83;21595;-81
2022/09/27 09:59:27;;;;;;;11.10;9.65;;;;;;;14.09;100.00;98194.05;1727693;83;21585;-80
2022/09/27 10:01:56;;;;;;;12.73;10.30;;;;;;;14.13;100.00;98194.18;1725746;83;21065;-80
2022/09/27 10:04:27;;;;;;;21.33;13.20;;;;;;;14.19;100.00;98192.05;1725671;83;21711;-80
2022/09/27 10:06:57;;;;;;;26.95;15.78;;;;;;;14.23;100.00;98191.73;1725846;83;21565;-78
2022/09/27 10:09:25;;;;;;;25.15;16.73;;;;;;;14.29;100.00;98180.73;1725869;82;21694;-80
2022/09/27 10:11:53;;;;;;;30.17;18.40;;;;;;;14.34;100.00;98183.52;1725834;82;21145;-79
2022/09/27 10:14:25;;;;;;;27.48;16.77;;;;;;;14.37;100.00;98181.48;1725349;83;21529;-78
2022/09/27 10:16:57;;;;;;;29.02;16.45;;;;;;;14.39;100.00;98179.60;1703915;83;21107;-80
2022/09/27 10:19:32;;;;;;;29.85;17.45;;;;;;;14.40;100.00;98185.24;1725682;83;21093;-80
2022/09/27 10:22:18;;;;;;;27.70;16.42;;;;;;;14.41;100.00;98182.14;1726287;83;21596;-80
2022/09/27 10:24:57;;;;;;;28.47;17.00;;;;;;;14.42;100.00;98187.30;1725908;83;21042;-79
2022/09/27 10:27:47;;;;;;;31.73;17.48;;;;;;;14.44;100.00;98188.51;1726144;83;21089;-79
2022/09/27 10:30:27;;;;;;;29.00;17.65;;;;;;;14.44;100.00;98189.38;1725721;83;21149;-80
2022/09/27 10:32:58;;;;;;;24.30;17.07;;;;;;;14.44;100.00;98182.77;1726209;83;21109;-79
2022/09/27 10:35:36;;;;;;;24.47;15.85;;;;;;;14.42;100.00;98178.03;1716323;83;21627;-79
2022/09/27 10:38:22;;;;;;;29.87;17.50;;;;;;;14.42;100.00;98163.48;1726204;83;21070;-79
2022/09/27 10:40:51;;;;;;;23.10;17.10;;;;;;;14.45;100.00;98171.20;1725868;83;21085;-79
2022/09/27 10:43:29;;;;;;;31.35;16.52;;;;;;;14.50;100.00;98169.55;1727377;83;21130;-80
2022/09/27 10:46:17;;;;;;;25.48;16.27;;;;;;;14.53;100.00;98172.47;1719267;82;22075;-79
2022/09/27 10:48:44;;;;;;;23.92;17.02;;;;;;;14.57;100.00;98176.58;1689510;83;21095;-79
2022/09/27 10:51:28;;;;;;;22.48;16.62;;;;;;;14.61;100.00;98178.09;1689531;83;21624;-78
2022/09/27 10:53:59;;;;;;;22.47;15.83;;;;;;;14.63;100.00;98184.11;1709758;83;22207;-79
2022/09/27 10:56:29;;;;;;;23.40;15.78;;;;;;;14.64;100.00;98176.52;1709448;83;21153;-80
2022/09/27 10:58:58;;;;;;;22.58;15.80;;;;;;;14.66;99.87;98173.30;1709956;83;21016;-79
2022/09/27 11:01:26;;;;;;;20.62;14.95;;;;;;;14.69;99.61;98173.05;1713449;83;21118;-80
2022/09/27 11:04:05;;;;;;;21.95;15.50;;;;;;;14.71;99.37;98177.78;1709974;83;21821;-80
2022/09/27 11:06:37;;;;;;;20.15;15.38;;;;;;;14.73;99.05;98167.92;1710193;83;21023;-78
2022/09/27 11:09:18;;;;;;;19.07;14.80;;;;;;;14.74;98.92;98159.00;1709790;83;21258;-78
2022/09/27 11:11:46;;;;;;;19.17;14.73;;;;;;;14.76;98.87;98149.17;1709761;83;25844;-79
2022/09/27 11:14:24;;;;;;;25.60;14.65;;;;;;;14.76;98.85;98151.81;1709680;83;21119;-79
2022/09/27 11:16:56;;;;;;;27.87;15.03;;;;;;;14.76;98.63;98153.14;1709895;83;21157;-80
2022/09/27 11:20:04;;;;;;;20.15;15.05;;;;;;;14.78;98.37;98153.86;1709667;83;20959;-79
2022/09/27 11:23:11;;;;;;;24.27;17.87;;;;;;;14.81;98.19;98143.51;1709692;83;21156;-80
2022/09/27 11:26:10;;;;;;;22.05;16.87;;;;;;;14.81;98.32;98138.21;1709820;83;21027;-81
2022/09/27 11:29:04;;;;;;;23.55;16.02;;;;;;;14.80;98.46;98114.88;1687963;83;21051;-79
2022/09/27 11:31:46;;;;;;;28.67;17.60;;;;;;;14.86;98.61;98114.88;1687590;83;21063;-79
2022/09/27 11:34:29;;;;;;;27.25;17.48;;;;;;;14.92;98.72;98126.84;1709807;83;21082;-80
2022/09/27 11:37:21;;;;;;;23.02;17.60;;;;;;;14.95;98.69;98131.91;1709901;83;21182;-79
2022/09/27 11:40:12;;;;;;;24.05;17.95;;;;;;;14.97;98.47;98136.61;1709957;83;21090;-79
2022/09/27 11:43:16;;;;;;;29.27;18.07;;;;;;;14.98;98.36;98134.34;1710008;83;21034;-79
2022/09/27 11:46:03;;;;;;;24.82;18.05;;;;;;;15.02;98.42;98127.84;1714784;82;21541;-79
2022/09/27 11:48:51;;;;;;;44.73;23.50;;;;;;;15.05;98.40;98131.09;1731863;82;21006;-78
2022/09/27 11:51:45;;;;;;;66.35;31.90;;;;;;;15.04;98.32;98133.37;1725840;83;21167;-78
2022/09/27 11:54:20;;;;;;;72.25;34.40;;;;;;;15.02;98.28;98141.91;1681182;83;21182;-80
2022/09/27 11:57:22;;;;;;;73.52;35.30;;;;;;;14.99;98.05;98146.60;1726091;83;21046;-79
2022/09/27 12:00:16;;;;;;;64.60;33.53;;;;;;;14.95;98.14;98139.86;1725715;83;21107;-80
2022/09/27 12:03:09;;;;;;;69.72;33.88;;;;;;;14.94;98.08;98129.72;1720351;83;21011;-79
2022/09/27 12:06:17;;;;;;;70.67;35.30;;;;;;;14.95;98.00;98138.05;1725483;83;21188;-80